Time;durP1;ratioP1;P1;durP2;ratioP2;P2;SDS_P1;SDS_P2;PMS_P1;PMS_P2;Temp;Humidity;BMP_temperature;BMP_pressure;BME280_temperature;BME280_humidity;BME280_pressure;Samples;Min_cycle;Max_cycle;Signal;HPM_P1;HPM_P2
2021/08/17 00:00:38;;;;;;;4.28;3.38;;;;;;;-142.25;100.00;58004.16;5097529;28;20031;-60
2021/08/17 00:03:04;;;;;;;5.32;3.10;;;;;;;-142.25;100.00;58004.16;5097144;28;20335;-60
2021/08/17 00:05:29;;;;;;;3.38;3.03;;;;;;;-142.25;100.00;58004.16;5100454;28;20066;-60
2021/08/17 00:07:55;;;;;;;4.53;3.28;;;;;;;-142.25;100.00;58004.16;5114076;27;20059;-60
2021/08/17 00:10:22;;;;;;;3.20;3.00;;;;;;;-142.25;100.00;58004.16;5101174;28;20032;-59
2021/08/17 00:12:48;;;;;;;3.63;2.85;;;;;;;-142.25;100.00;58004.16;5099656;28;20131;-60
2021/08/17 00:15:14;;;;;;;3.17;2.88;;;;;;;-142.25;100.00;58004.16;5097313;28;20327;-59
2021/08/17 00:17:40;;;;;;;3.25;2.95;;;;;;;-142.25;100.00;58004.16;5098577;28;20035;-58
2021/08/17 00:20:06;;;;;;;4.25;3.17;;;;;;;-142.25;100.00;58004.16;5097786;28;20070;-59
2021/08/17 00:22:35;;;;;;;3.35;3.05;;;;;;;-142.25;100.00;58004.16;5098750;28;20023;-59
2021/08/17 00:25:00;;;;;;;3.13;2.83;;;;;;;-142.25;100.00;58004.16;5095682;28;20063;-59
2021/08/17 00:27:25;;;;;;;4.05;3.13;;;;;;;-142.25;100.00;58004.16;5097848;28;20459;-58
2021/08/17 00:29:51;;;;;;;4.85;3.70;;;;;;;-142.25;100.00;58004.16;5095870;28;20519;-59
2021/08/17 00:32:17;;;;;;;2.65;2.42;;;;;;;-142.25;100.00;58004.16;5111158;27;20073;-60
2021/08/17 00:34:42;;;;;;;3.08;2.60;;;;;;;-142.25;100.00;58004.16;5099021;28;20484;-60
2021/08/17 00:37:08;;;;;;;5.82;3.38;;;;;;;-142.25;100.00;58004.16;5099651;28;20044;-60
2021/08/17 00:39:35;;;;;;;5.68;2.88;;;;;;;-142.25;100.00;58004.16;5099639;28;20082;-59
2021/08/17 00:42:03;;;;;;;4.57;4.18;;;;;;;-142.25;100.00;58004.16;5099677;28;20020;-60
2021/08/17 00:44:29;;;;;;;4.75;3.00;;;;;;;-142.25;100.00;58004.16;5098052;28;20059;-58
2021/08/17 00:46:58;;;;;;;3.42;3.13;;;;;;;-142.25;100.00;58004.16;5099786;28;20102;-59
2021/08/17 00:49:24;;;;;;;6.78;3.42;;;;;;;-142.25;100.00;58004.16;5099214;28;20047;-59
2021/08/17 00:51:53;;;;;;;4.97;3.15;;;;;;;-142.25;100.00;58004.16;5099864;28;20041;-59
2021/08/17 00:54:20;;;;;;;5.88;3.20;;;;;;;-142.25;100.00;58004.16;5098623;28;20032;-59
2021/08/17 00:56:47;;;;;;;6.15;4.28;;;;;;;-142.25;100.00;58004.16;5099875;28;20027;-57
2021/08/17 00:59:12;;;;;;;4.97;4.00;;;;;;;-142.25;100.00;58004.16;5100320;28;20035;-57
2021/08/17 01:01:39;;;;;;;6.65;3.75;;;;;;;-142.25;100.00;58004.16;5099881;28;20288;-60
2021/08/17 01:04:06;;;;;;;7.25;3.00;;;;;;;-142.25;100.00;58004.16;5080822;28;20656;-59
2021/08/17 01:06:31;;;;;;;5.20;3.80;;;;;;;-142.25;100.00;58004.16;5082142;28;20046;-54
2021/08/17 01:08:57;;;;;;;6.75;4.07;;;;;;;-142.25;100.00;58004.16;5082640;28;20102;-57
2021/08/17 01:11:22;;;;;;;8.77;5.25;;;;;;;-142.25;100.00;58004.16;5100082;28;20032;-55
2021/08/17 01:13:51;;;;;;;4.03;3.53;;;;;;;-142.25;100.00;58004.16;5081404;28;20024;-59
2021/08/17 01:16:21;;;;;;;3.42;3.10;;;;;;;-142.25;100.00;58004.16;5097894;28;20066;-58
2021/08/17 01:18:47;;;;;;;5.03;3.20;;;;;;;-142.25;100.00;58004.16;5097235;28;20031;-59
2021/08/17 01:21:14;;;;;;;4.85;2.85;;;;;;;-142.25;100.00;58004.16;5100684;28;20307;-59
2021/08/17 01:23:39;;;;;;;4.80;2.80;;;;;;;-142.25;100.00;58004.16;5082629;28;20038;-59
2021/08/17 01:26:05;;;;;;;4.43;3.20;;;;;;;-142.25;100.00;58004.16;5100926;28;20293;-56
2021/08/17 01:28:30;;;;;;;6.20;3.13;;;;;;;-142.25;100.00;58004.16;5098475;28;20031;-59
2021/08/17 01:31:07;;;;;;;3.50;3.20;;;;;;;-142.25;100.00;58004.16;5097960;28;20042;-58
2021/08/17 01:33:34;;;;;;;3.20;2.92;;;;;;;-142.25;100.00;58004.16;5099978;28;20036;-55
2021/08/17 01:36:01;;;;;;;5.00;2.97;;;;;;;-142.25;100.00;58004.16;5098746;28;20040;-54
2021/08/17 01:38:27;;;;;;;6.13;3.42;;;;;;;-142.25;100.00;58004.16;5097373;28;20440;-58
2021/08/17 01:40:53;;;;;;;4.78;3.28;;;;;;;-142.25;100.00;58004.16;5099705;28;20040;-53
2021/08/17 01:43:19;;;;;;;3.63;2.90;;;;;;;-142.25;100.00;58004.16;5095104;28;20337;-58
2021/08/17 01:45:53;;;;;;;6.85;3.75;;;;;;;-142.25;100.00;58004.16;5099730;28;20034;-58
2021/08/17 01:48:18;;;;;;;3.75;2.60;;;;;;;-142.25;100.00;58004.16;5100774;28;20146;-58
2021/08/17 01:50:43;;;;;;;4.90;2.85;;;;;;;-142.25;100.00;58004.16;5097192;28;20107;-59
2021/08/17 01:53:09;;;;;;;3.97;2.80;;;;;;;-142.25;100.00;58004.16;5097945;28;20110;-56
2021/08/17 01:55:34;;;;;;;5.07;2.50;;;;;;;-142.25;100.00;58004.16;5099600;28;20280;-55
2021/08/17 01:58:03;;;;;;;3.20;2.90;;;;;;;-142.25;100.00;58004.16;5098706;28;20023;-55
2021/08/17 02:00:28;;;;;;;4.50;2.60;;;;;;;-142.25;100.00;58004.16;5099100;28;20126;-56
2021/08/17 02:02:56;;;;;;;4.35;2.80;;;;;;;-142.25;100.00;58004.16;5098728;28;20438;-57
2021/08/17 02:05:23;;;;;;;3.38;2.30;;;;;;;-142.25;100.00;58004.16;5099324;28;20016;-59
2021/08/17 02:07:51;;;;;;;3.83;2.42;;;;;;;-142.25;100.00;58004.16;5097331;28;20028;-54
2021/08/17 02:10:17;;;;;;;3.42;2.80;;;;;;;-142.25;100.00;58004.16;5084952;28;20387;-57
2021/08/17 02:12:42;;;;;;;4.47;2.70;;;;;;;-142.25;100.00;58004.16;5099119;28;20036;-54
2021/08/17 02:15:08;;;;;;;3.50;3.20;;;;;;;-142.25;100.00;58004.16;5096173;28;20027;-58
2021/08/17 02:17:34;;;;;;;3.92;2.42;;;;;;;-142.25;100.00;58004.16;5096916;28;20269;-59
2021/08/17 02:19:59;;;;;;;4.72;3.47;;;;;;;-142.25;100.00;58004.16;5099517;28;20028;-57
2021/08/17 02:22:25;;;;;;;3.40;2.60;;;;;;;-142.25;100.00;58004.16;5097358;28;20027;-59
2021/08/17 02:24:50;;;;;;;2.60;2.40;;;;;;;-142.25;100.00;58004.16;5082827;28;20110;-57
2021/08/17 02:27:16;;;;;;;3.00;2.50;;;;;;;-142.25;100.00;58004.16;5097833;28;20046;-58
2021/08/17 02:29:41;;;;;;;5.30;3.40;;;;;;;-142.25;100.00;58004.16;5098940;28;20101;-57
2021/08/17 02:32:07;;;;;;;3.58;2.47;;;;;;;-142.25;100.00;58004.16;5098571;28;20039;-57
2021/08/17 02:34:32;;;;;;;8.65;3.50;;;;;;;-142.25;100.00;58004.16;5096205;28;20139;-52
2021/08/17 02:36:58;;;;;;;2.67;2.45;;;;;;;-142.25;100.00;58004.16;5082924;28;20027;-51
2021/08/17 02:39:23;;;;;;;3.53;2.40;;;;;;;-142.25;100.00;58004.16;5098111;28;20110;-55
2021/08/17 02:41:48;;;;;;;4.25;2.92;;;;;;;-142.25;100.00;58004.16;5097440;28;20032;-53
2021/08/17 02:44:14;;;;;;;4.03;2.80;;;;;;;-142.25;100.00;58004.16;5100491;28;20039;-58
2021/08/17 02:46:39;;;;;;;4.28;3.00;;;;;;;-142.25;100.00;58004.16;5097076;28;20027;-57
2021/08/17 02:49:05;;;;;;;9.68;3.13;;;;;;;-142.25;100.00;58004.16;5088568;28;20055;-53
2021/08/17 02:51:31;;;;;;;3.47;3.17;;;;;;;-142.25;100.00;58004.16;5097529;28;20088;-53
2021/08/17 02:53:56;;;;;;;5.68;2.88;;;;;;;-142.25;100.00;58004.16;5098150;28;20396;-51
2021/08/17 02:56:21;;;;;;;4.05;3.25;;;;;;;-142.25;100.00;58004.16;5099132;28;20036;-52
2021/08/17 02:58:47;;;;;;;2.72;2.50;;;;;;;-142.25;100.00;58004.16;5086676;28;20042;-52
2021/08/17 03:01:12;;;;;;;3.40;3.10;;;;;;;-142.25;100.00;58004.16;5100025;28;20300;-54
2021/08/17 03:03:38;;;;;;;7.55;3.10;;;;;;;-142.25;100.00;58004.16;5103377;28;20270;-53
2021/08/17 03:06:03;;;;;;;3.55;2.80;;;;;;;-142.25;100.00;58004.16;5100406;28;20124;-53
2021/08/17 03:08:29;;;;;;;3.78;3.22;;;;;;;-142.25;100.00;58004.16;5100331;28;20092;-53
2021/08/17 03:10:54;;;;;;;6.68;4.07;;;;;;;-142.25;100.00;58004.16;5100649;28;20024;-53
2021/08/17 03:13:19;;;;;;;4.55;2.38;;;;;;;-142.25;100.00;58004.16;5087157;28;20078;-55
2021/08/17 03:15:45;;;;;;;4.10;3.67;;;;;;;-142.25;100.00;58004.16;5101903;28;20028;-53
2021/08/17 03:18:10;;;;;;;3.45;3.15;;;;;;;-142.25;100.00;58004.16;5082780;28;20039;-52
2021/08/17 03:20:36;;;;;;;5.47;3.08;;;;;;;-142.25;100.00;58004.16;5102855;28;20273;-54
2021/08/17 03:23:03;;;;;;;4.63;3.40;;;;;;;-142.25;100.00;58004.16;5103775;28;20384;-55
2021/08/17 03:25:29;;;;;;;8.73;3.38;;;;;;;-142.25;100.00;58004.16;5102628;28;20027;-54
2021/08/17 03:27:55;;;;;;;5.05;3.65;;;;;;;-142.25;100.00;58004.16;5100273;28;20028;-52
2021/08/17 03:30:23;;;;;;;5.38;2.97;;;;;;;-142.25;100.00;58004.16;5102043;28;20099;-54
2021/08/17 03:32:49;;;;;;;4.50;3.22;;;;;;;-142.25;100.00;58004.16;5099619;28;20036;-55
2021/08/17 03:35:15;;;;;;;4.18;3.75;;;;;;;-142.25;100.00;58004.16;5100608;28;20054;-54
2021/08/17 03:37:41;;;;;;;5.57;3.20;;;;;;;-142.25;100.00;58004.16;5102419;28;20024;-54
2021/08/17 03:40:13;;;;;;;3.55;3.25;;;;;;;-142.25;100.00;58004.16;5099450;28;20265;-53
2021/08/17 03:42:39;;;;;;;3.95;3.55;;;;;;;-142.25;100.00;58004.16;5101605;28;20035;-56
2021/08/17 03:45:07;;;;;;;6.07;4.13;;;;;;;-142.25;100.00;58004.16;5101065;28;20110;-57
2021/08/17 03:47:32;;;;;;;7.35;4.07;;;;;;;-142.25;100.00;58004.16;5100262;28;20044;-56
2021/08/17 03:49:57;;;;;;;4.25;3.85;;;;;;;-142.25;100.00;58004.16;5102095;28;20100;-54
2021/08/17 03:52:23;;;;;;;5.63;2.92;;;;;;;-142.25;100.00;58004.16;5101804;28;20032;-57
2021/08/17 03:54:48;;;;;;;4.35;2.92;;;;;;;-142.25;100.00;58004.16;5099634;28;20038;-59
2021/08/17 03:57:14;;;;;;;5.53;4.40;;;;;;;-142.25;100.00;58004.16;5100600;28;20294;-58
2021/08/17 03:59:39;;;;;;;5.57;4.43;;;;;;;-142.25;100.00;58004.16;5101869;28;20296;-60
2021/08/17 04:02:04;;;;;;;3.90;3.13;;;;;;;-142.25;100.00;58004.16;5081623;28;20119;-58
2021/08/17 04:04:30;;;;;;;4.95;3.50;;;;;;;-142.25;100.00;58004.16;5085035;28;20072;-58
2021/08/17 04:06:55;;;;;;;4.22;3.78;;;;;;;-142.25;100.00;58004.16;5100035;28;20032;-59
2021/08/17 04:09:21;;;;;;;8.48;3.40;;;;;;;-142.25;100.00;58004.16;5099652;28;20285;-58
2021/08/17 04:11:46;;;;;;;6.28;3.78;;;;;;;-142.25;100.00;58004.16;5102218;28;20031;-59
2021/08/17 04:14:11;;;;;;;4.82;3.50;;;;;;;-142.25;100.00;58004.16;5101083;28;20432;-57
2021/08/17 04:16:37;;;;;;;6.35;4.35;;;;;;;-142.25;100.00;58004.16;5101783;28;20426;-56
2021/08/17 04:19:02;;;;;;;11.38;6.15;;;;;;;-142.25;100.00;58004.16;5099874;28;20039;-58
2021/08/17 04:21:28;;;;;;;5.32;3.67;;;;;;;-142.25;100.00;58004.16;5101275;28;20076;-58
2021/08/17 04:23:54;;;;;;;5.72;4.75;;;;;;;-142.25;100.00;58004.16;5100110;28;20081;-59
2021/08/17 04:26:19;;;;;;;3.75;3.38;;;;;;;-142.25;100.00;58004.16;5085062;28;20055;-58
2021/08/17 04:28:44;;;;;;;5.40;2.97;;;;;;;-142.25;100.00;58004.16;5100663;28;20031;-59
2021/08/17 04:31:11;;;;;;;2.97;2.72;;;;;;;-142.25;100.00;58004.16;5099802;28;20034;-59
2021/08/17 04:33:37;;;;;;;3.60;3.30;;;;;;;-142.25;100.00;58004.16;5098286;28;20055;-59
2021/08/17 04:36:02;;;;;;;2.45;2.25;;;;;;;-142.25;100.00;58004.16;5101974;28;20111;-58
2021/08/17 04:38:28;;;;;;;1.85;1.75;;;;;;;-142.25;100.00;58004.16;5099940;28;20035;-58
2021/08/17 04:40:53;;;;;;;1.90;1.45;;;;;;;-142.25;100.00;58004.16;5084814;28;20030;-57
2021/08/17 04:43:19;;;;;;;1.98;1.50;;;;;;;-142.25;100.00;58004.16;5098418;28;20031;-61
2021/08/17 04:45:44;;;;;;;2.00;1.90;;;;;;;-142.25;100.00;58004.16;5101965;28;20028;-59
2021/08/17 04:48:09;;;;;;;1.90;1.80;;;;;;;-142.25;100.00;58004.16;5099879;28;20111;-57
2021/08/17 04:50:35;;;;;;;2.53;2.30;;;;;;;-142.25;100.00;58004.16;5101796;28;20106;-58
2021/08/17 04:53:00;;;;;;;2.80;2.60;;;;;;;-142.25;100.00;58004.16;5098255;28;20081;-59
2021/08/17 04:55:26;;;;;;;2.35;2.15;;;;;;;-142.25;100.00;58004.16;5101600;28;20071;-58
2021/08/17 04:57:56;;;;;;;3.20;2.50;;;;;;;-142.25;100.00;58004.16;5083782;28;20027;-59
2021/08/17 05:00:23;;;;;;;2.70;2.50;;;;;;;-142.25;100.00;58004.16;5100039;28;20027;-58
2021/08/17 05:02:49;;;;;;;5.13;2.33;;;;;;;-142.25;100.00;58004.16;5099471;28;20322;-57
2021/08/17 05:05:15;;;;;;;2.10;1.92;;;;;;;-142.25;100.00;58004.16;5099210;28;20288;-57
2021/08/17 05:07:41;;;;;;;2.13;2.03;;;;;;;-142.25;100.00;58004.16;5101531;28;20456;-59
2021/08/17 05:10:09;;;;;;;2.53;2.15;;;;;;;-142.25;100.00;58004.16;5100101;28;20093;-57
2021/08/17 05:12:35;;;;;;;2.53;2.33;;;;;;;-142.25;100.00;58004.16;5101932;28;20265;-57
2021/08/17 05:15:02;;;;;;;2.05;1.95;;;;;;;-142.25;100.00;58004.16;5084711;28;20032;-58
2021/08/17 05:17:28;;;;;;;2.80;2.60;;;;;;;-142.25;100.00;58004.16;5098071;28;20396;-57
2021/08/17 05:19:53;;;;;;;2.80;2.33;;;;;;;-142.25;100.00;58004.16;5098754;28;20059;-58
2021/08/17 05:22:19;;;;;;;2.83;2.63;;;;;;;-142.25;100.00;58004.16;5097815;28;20085;-58
2021/08/17 05:24:44;;;;;;;2.25;2.15;;;;;;;-142.25;100.00;58004.16;5101430;28;20429;-58
2021/08/17 05:27:09;;;;;;;2.05;1.95;;;;;;;-142.25;100.00;58004.16;5097473;28;20024;-58
2021/08/17 05:29:35;;;;;;;2.47;2.28;;;;;;;-142.25;100.00;58004.16;5098065;28;20043;-56
2021/08/17 05:32:00;;;;;;;3.15;2.90;;;;;;;-142.25;100.00;58004.16;5099785;28;20258;-57
2021/08/17 05:34:26;;;;;;;2.55;2.35;;;;;;;-142.25;100.00;58004.16;5097600;28;20044;-57
2021/08/17 05:36:51;;;;;;;2.60;2.40;;;;;;;-142.25;100.00;58004.16;5099503;28;20337;-58
2021/08/17 05:39:17;;;;;;;2.80;2.60;;;;;;;-142.25;100.00;58004.16;5099696;28;20815;-59
2021/08/17 05:41:42;;;;;;;2.50;2.30;;;;;;;-142.25;100.00;58004.16;5100187;28;20036;-56
2021/08/17 05:44:08;;;;;;;2.47;2.22;;;;;;;-142.25;100.00;58004.16;5096957;28;20054;-56
2021/08/17 05:46:33;;;;;;;3.35;3.03;;;;;;;-142.25;100.00;58004.16;5098857;28;20066;-56
2021/08/17 05:48:59;;;;;;;3.67;3.35;;;;;;;-142.25;100.00;58004.16;5097385;28;20526;-56
2021/08/17 05:51:24;;;;;;;1.98;1.88;;;;;;;-142.25;100.00;58004.16;5097843;28;20032;-59
2021/08/17 05:53:49;;;;;;;2.55;2.05;;;;;;;-142.25;100.00;58004.16;5097944;28;20073;-59
2021/08/17 05:56:15;;;;;;;3.28;2.63;;;;;;;-142.25;100.00;58004.16;5084805;28;20039;-59
2021/08/17 05:58:40;;;;;;;2.17;1.98;;;;;;;-142.25;100.00;58004.16;5099018;28;20031;-59
2021/08/17 06:01:06;;;;;;;2.67;2.47;;;;;;;-142.25;100.00;58004.16;5101008;28;20037;-59
2021/08/17 06:03:31;;;;;;;3.15;2.85;;;;;;;-142.25;100.00;58004.16;5098811;28;20020;-59
2021/08/17 06:05:59;;;;;;;3.05;2.70;;;;;;;-142.25;100.00;58004.16;5099427;28;20016;-59
2021/08/17 06:08:25;;;;;;;2.97;2.67;;;;;;;-142.25;100.00;58004.16;5098597;28;20024;-58
2021/08/17 06:10:51;;;;;;;3.08;2.78;;;;;;;-142.25;100.00;58004.16;5097359;28;20781;-59
2021/08/17 06:13:16;;;;;;;3.70;2.95;;;;;;;-142.25;100.00;58004.16;5085064;28;20024;-58
2021/08/17 06:15:41;;;;;;;1.85;1.10;;;;;;;-142.25;100.00;58004.16;5099788;28;20074;-59
2021/08/17 06:18:08;;;;;;;1.10;1.10;;;;;;;-142.25;100.00;58004.16;5098765;28;20024;-58
2021/08/17 06:20:35;;;;;;;1.38;1.27;;;;;;;-142.25;100.00;58004.16;5100018;28;20101;-60
2021/08/17 06:23:01;;;;;;;1.30;1.30;;;;;;;-142.25;100.00;58004.16;5098096;28;20032;-58
2021/08/17 06:25:28;;;;;;;1.67;1.58;;;;;;;-142.25;100.00;58004.16;5086562;28;20028;-57
2021/08/17 06:27:54;;;;;;;1.85;1.60;;;;;;;-142.25;100.00;58004.16;5097425;28;20020;-57
2021/08/17 06:30:20;;;;;;;1.90;1.80;;;;;;;-142.25;100.00;58004.16;5097803;28;20054;-59
2021/08/17 06:32:46;;;;;;;1.27;1.27;;;;;;;-142.25;100.00;58004.16;5097902;28;20027;-59
2021/08/17 06:35:11;;;;;;;1.65;1.55;;;;;;;-142.25;100.00;58004.16;5096030;28;20048;-59
2021/08/17 06:37:37;;;;;;;1.52;1.50;;;;;;;-142.25;100.00;58004.16;5096361;28;20023;-58
2021/08/17 06:40:03;;;;;;;1.52;1.52;;;;;;;-142.25;100.00;58004.16;5096160;28;20117;-58
2021/08/17 06:42:29;;;;;;;1.70;1.60;;;;;;;-142.25;100.00;58004.16;5095551;28;20376;-58
2021/08/17 06:44:54;;;;;;;2.40;2.30;;;;;;;-142.25;100.00;58004.16;5098208;28;20016;-57
2021/08/17 06:47:19;;;;;;;2.70;2.45;;;;;;;-142.25;100.00;58004.16;5099339;28;20035;-58
2021/08/17 06:49:45;;;;;;;2.97;2.78;;;;;;;-142.25;100.00;58004.16;5097593;28;20039;-58
2021/08/17 06:52:10;;;;;;;2.92;2.65;;;;;;;-142.25;100.00;58004.16;5098304;28;20024;-59
2021/08/17 06:54:36;;;;;;;2.42;2.28;;;;;;;-142.25;100.00;58004.16;5096596;28;20027;-59
2021/08/17 06:57:01;;;;;;;2.63;2.42;;;;;;;-142.25;100.00;58004.16;5097623;28;20024;-59
2021/08/17 06:59:27;;;;;;;3.28;2.85;;;;;;;-142.25;100.00;58004.16;5083606;28;20034;-58
2021/08/17 07:01:52;;;;;;;3.13;2.83;;;;;;;-142.25;100.00;58004.16;5097477;28;20032;-61
2021/08/17 07:04:18;;;;;;;2.83;2.63;;;;;;;-142.25;100.00;58004.16;5097648;28;20047;-59
2021/08/17 07:06:43;;;;;;;2.58;2.38;;;;;;;-142.25;100.00;58004.16;5098009;28;20020;-60
2021/08/17 07:09:08;;;;;;;2.80;2.45;;;;;;;-142.25;100.00;58004.16;5094883;28;20043;-59
2021/08/17 07:11:34;;;;;;;3.20;2.90;;;;;;;-142.25;100.00;58004.16;5097745;28;20036;-59
2021/08/17 07:13:59;;;;;;;3.03;2.72;;;;;;;-142.25;100.00;58004.16;5096353;28;20028;-60
2021/08/17 07:16:25;;;;;;;4.22;3.63;;;;;;;-142.25;100.00;58004.16;5096567;28;20020;-59
2021/08/17 07:18:50;;;;;;;3.85;3.33;;;;;;;-142.25;100.00;58004.16;5097058;28;20047;-59
2021/08/17 07:21:15;;;;;;;5.03;4.10;;;;;;;-142.25;100.00;58004.16;5096331;28;20063;-59
2021/08/17 07:23:41;;;;;;;3.72;3.28;;;;;;;-142.25;100.00;58004.16;5097855;28;20389;-60
2021/08/17 07:26:07;;;;;;;5.72;4.10;;;;;;;-142.25;100.00;58004.16;5096808;28;20030;-61
2021/08/17 07:28:32;;;;;;;5.22;3.17;;;;;;;-142.25;100.00;58004.16;5096274;28;20523;-60
2021/08/17 07:30:58;;;;;;;4.05;3.60;;;;;;;-142.25;100.00;58004.16;5097157;28;20032;-60
2021/08/17 07:33:23;;;;;;;4.18;3.65;;;;;;;-142.25;100.00;58004.16;5097730;28;20034;-59
2021/08/17 07:35:48;;;;;;;3.13;2.83;;;;;;;-142.25;100.00;58004.16;5098709;28;20044;-60
2021/08/17 07:38:14;;;;;;;3.10;2.83;;;;;;;-142.25;100.00;58004.16;5098917;28;20024;-60
2021/08/17 07:40:40;;;;;;;3.50;3.20;;;;;;;-142.25;100.00;58004.16;5082835;28;20154;-60
2021/08/17 07:43:05;;;;;;;3.40;3.10;;;;;;;-142.25;100.00;58004.16;5099199;28;20054;-59
2021/08/17 07:45:31;;;;;;;3.75;3.30;;;;;;;-142.25;100.00;58004.16;5101325;28;20028;-59
2021/08/17 07:47:57;;;;;;;3.00;2.70;;;;;;;-142.25;100.00;58004.16;5103767;28;20032;-60
2021/08/17 07:50:23;;;;;;;4.45;3.67;;;;;;;-142.25;100.00;58004.16;5083433;28;20028;-61
2021/08/17 07:52:50;;;;;;;6.25;2.35;;;;;;;-142.25;100.00;58004.16;5101875;28;20488;-60
2021/08/17 07:55:16;;;;;;;3.83;3.45;;;;;;;-142.25;100.00;58004.16;5102296;28;20028;-57
2021/08/17 07:57:42;;;;;;;5.72;3.92;;;;;;;-142.25;100.00;58004.16;5103330;28;20116;-59
2021/08/17 08:00:11;;;;;;;3.38;2.92;;;;;;;-142.25;100.00;58004.16;5102386;28;20455;-59
2021/08/17 08:02:37;;;;;;;3.60;2.80;;;;;;;-142.25;100.00;58004.16;5102693;28;20046;-59
2021/08/17 08:05:04;;;;;;;6.32;4.95;;;;;;;-142.25;100.00;58004.16;5101905;28;20027;-59
2021/08/17 08:07:29;;;;;;;3.53;2.72;;;;;;;-142.25;100.00;58004.16;5099891;28;20384;-59
2021/08/17 08:09:55;;;;;;;4.55;3.17;;;;;;;-142.25;100.00;58004.16;5101301;28;20034;-59
2021/08/17 08:12:20;;;;;;;4.10;3.05;;;;;;;-142.25;100.00;58004.16;5101564;28;20082;-59
2021/08/17 08:14:45;;;;;;;4.35;3.65;;;;;;;-142.25;100.00;58004.16;5099058;28;20120;-60
2021/08/17 08:17:12;;;;;;;4.72;3.60;;;;;;;-142.25;100.00;58004.16;5099162;28;20031;-59
2021/08/17 08:19:37;;;;;;;4.03;3.50;;;;;;;-142.25;100.00;58004.16;5100275;28;20442;-59
2021/08/17 08:22:04;;;;;;;6.47;4.68;;;;;;;-142.25;100.00;58004.16;5098249;28;20127;-59
2021/08/17 08:24:30;;;;;;;7.05;4.60;;;;;;;-142.25;100.00;58004.16;5098474;28;20373;-59
2021/08/17 08:26:56;;;;;;;5.47;3.58;;;;;;;-142.25;100.00;58004.16;5097755;28;20262;-59
2021/08/17 08:29:21;;;;;;;7.43;5.00;;;;;;;-142.25;100.00;58004.16;5096286;28;20032;-59
2021/08/17 08:31:46;;;;;;;4.88;3.88;;;;;;;-142.25;100.00;58004.16;5097951;28;20027;-59
2021/08/17 08:34:12;;;;;;;4.65;3.03;;;;;;;-142.25;100.00;58004.16;5099997;28;20063;-59
2021/08/17 08:36:37;;;;;;;3.25;2.95;;;;;;;-142.25;100.00;58004.16;5100638;28;20089;-58
2021/08/17 08:39:03;;;;;;;5.82;3.60;;;;;;;-142.25;100.00;58004.16;5099031;28;20027;-59
2021/08/17 08:41:28;;;;;;;5.15;2.80;;;;;;;-142.25;100.00;58004.16;5101618;28;20043;-60
2021/08/17 08:43:54;;;;;;;3.67;3.08;;;;;;;-142.25;100.00;58004.16;5099998;28;20032;-59
2021/08/17 08:46:20;;;;;;;4.05;3.63;;;;;;;-142.25;100.00;58004.16;5093247;28;20028;-58
2021/08/17 08:48:51;;;;;;;5.32;3.00;;;;;;;-142.25;100.00;58004.16;5103271;28;20288;-59
2021/08/17 08:51:19;;;;;;;3.85;3.53;;;;;;;-142.25;100.00;58004.16;5100056;28;20036;-59
2021/08/17 08:53:46;;;;;;;4.43;3.10;;;;;;;-142.25;100.00;58004.16;5116971;27;20024;-59
2021/08/17 08:56:11;;;;;;;6.13;4.50;;;;;;;-142.25;100.00;58004.16;5100621;28;20024;-58
2021/08/17 08:58:37;;;;;;;5.25;3.35;;;;;;;-142.25;100.00;58004.16;5100762;28;20035;-59
2021/08/17 09:01:03;;;;;;;5.00;3.50;;;;;;;-142.25;100.00;58004.16;5100929;28;20079;-59
2021/08/17 09:03:45;;;;;;;3.63;3.00;;;;;;;-142.25;100.00;58004.16;5100849;28;20388;-60
2021/08/17 09:06:16;;;;;;;4.03;3.20;;;;;;;-142.25;100.00;58004.16;5099730;28;20118;-60
2021/08/17 09:08:42;;;;;;;3.30;2.42;;;;;;;-142.25;100.00;58004.16;5084615;28;20126;-59
2021/08/17 09:11:14;;;;;;;3.90;3.13;;;;;;;-142.25;100.00;58004.16;5100618;28;20027;-59
2021/08/17 09:13:40;;;;;;;5.03;3.00;;;;;;;-142.25;100.00;58004.16;5098989;28;20339;-59
2021/08/17 09:16:22;;;;;;;4.75;3.80;;;;;;;-142.25;100.00;58004.16;5099794;28;20015;-59
2021/08/17 09:18:50;;;;;;;4.38;3.72;;;;;;;-142.25;100.00;58004.16;5101001;28;20081;-59
2021/08/17 09:21:15;;;;;;;3.53;2.95;;;;;;;-142.25;100.00;58004.16;5101461;28;20019;-60
2021/08/17 09:23:41;;;;;;;5.47;4.35;;;;;;;-142.25;100.00;58004.16;5099945;28;20473;-60
2021/08/17 09:26:30;;;;;;;5.10;4.03;;;;;;;-142.25;100.00;58004.16;5099118;28;20030;-59
2021/08/17 09:29:00;;;;;;;4.35;3.38;;;;;;;-142.25;100.00;58004.16;5102460;28;20035;-59
2021/08/17 09:31:38;;;;;;;4.97;3.78;;;;;;;-142.25;100.00;58004.16;5099075;28;20036;-59
2021/08/17 09:34:07;;;;;;;6.07;4.07;;;;;;;-142.25;100.00;58004.16;5100125;28;20047;-60
2021/08/17 09:36:41;;;;;;;4.45;4.05;;;;;;;-142.25;100.00;58004.16;5100231;28;20115;-60
2021/08/17 09:39:09;;;;;;;6.15;3.80;;;;;;;-142.25;100.00;58004.16;5101499;28;20101;-60
2021/08/17 09:41:35;;;;;;;4.00;3.55;;;;;;;-142.25;100.00;58004.16;5099915;28;20399;-58
2021/08/17 09:44:06;;;;;;;3.72;3.38;;;;;;;-142.25;100.00;58004.16;5100377;28;20034;-59
2021/08/17 09:46:40;;;;;;;3.67;3.38;;;;;;;-142.25;100.00;58004.16;5099777;28;20023;-60
2021/08/17 09:49:23;;;;;;;4.18;3.70;;;;;;;-142.25;100.00;58004.16;5100776;28;20033;-59
2021/08/17 09:51:49;;;;;;;7.35;4.43;;;;;;;-142.25;100.00;58004.16;5097492;28;20031;-59
2021/08/17 09:54:17;;;;;;;4.05;3.75;;;;;;;-142.25;100.00;58004.16;5100801;28;20026;-60
2021/08/17 09:56:53;;;;;;;3.42;3.13;;;;;;;-142.25;100.00;58004.16;5098341;28;20038;-60
2021/08/17 09:59:19;;;;;;;5.15;3.97;;;;;;;-142.25;100.00;58004.16;5100801;28;20058;-60
2021/08/17 10:01:46;;;;;;;4.25;3.88;;;;;;;-142.25;100.00;58004.16;5099530;28;20027;-60
2021/08/17 10:04:14;;;;;;;4.72;3.55;;;;;;;-142.25;100.00;58004.16;5098494;28;20031;-57
2021/08/17 10:06:40;;;;;;;7.13;3.97;;;;;;;-142.25;100.00;58004.16;5102082;28;20072;-62
2021/08/17 10:09:06;;;;;;;6.57;3.40;;;;;;;-142.25;100.00;58004.16;5101012;28;20036;-58
2021/08/17 10:11:34;;;;;;;5.93;5.30;;;;;;;-142.25;100.00;58004.16;5101039;28;20047;-59
2021/08/17 10:13:59;;;;;;;5.30;4.05;;;;;;;-142.25;100.00;58004.16;5098868;28;20055;-58
2021/08/17 10:16:25;;;;;;;4.63;3.88;;;;;;;-142.25;100.00;58004.16;5100693;28;20114;-60
2021/08/17 10:18:51;;;;;;;5.60;4.13;;;;;;;-142.25;100.00;58004.16;5096769;28;20028;-57
2021/08/17 10:21:19;;;;;;;4.07;3.55;;;;;;;-142.25;100.00;58004.16;5098107;28;20030;-60
2021/08/17 10:23:44;;;;;;;6.32;4.22;;;;;;;-142.25;100.00;58004.16;5094725;28;20396;-60
2021/08/17 10:26:31;;;;;;;5.30;4.78;;;;;;;-142.25;100.00;58004.16;5095014;28;20020;-60
2021/08/17 10:28:58;;;;;;;6.28;4.40;;;;;;;-142.25;100.00;58004.16;5097768;28;20024;-60
2021/08/17 10:31:26;;;;;;;22.98;7.15;;;;;;;-142.25;100.00;58004.16;5096028;28;20035;-60
2021/08/17 10:34:12;;;;;;;4.13;3.72;;;;;;;-142.25;100.00;58004.16;5096073;28;20044;-60
2021/08/17 10:36:43;;;;;;;4.75;4.18;;;;;;;-142.25;100.00;58004.16;5097536;28;20019;-60
2021/08/17 10:39:18;;;;;;;4.53;4.13;;;;;;;-142.25;100.00;58004.16;5100487;28;20801;-60
2021/08/17 10:41:46;;;;;;;4.32;3.92;;;;;;;-142.25;100.00;58004.16;5097400;28;20032;-60
2021/08/17 10:44:23;;;;;;;10.05;4.43;;;;;;;-142.25;100.00;58004.16;5097876;28;20076;-60
2021/08/17 10:46:50;;;;;;;4.78;3.28;;;;;;;-142.25;100.00;58004.16;5096889;28;20322;-61
2021/08/17 10:49:28;;;;;;;4.35;3.88;;;;;;;-142.25;100.00;58004.16;5097714;28;20116;-62
2021/08/17 10:52:01;;;;;;;5.07;3.65;;;;;;;-142.25;100.00;58004.16;5099008;28;20050;-60
2021/08/17 10:54:27;;;;;;;6.30;3.65;;;;;;;-142.25;100.00;58004.16;5097824;28;20093;-64
2021/08/17 10:56:52;;;;;;;4.65;3.85;;;;;;;-142.25;100.00;58004.16;5097084;28;20027;-65
2021/08/17 10:59:41;;;;;;;4.10;3.75;;;;;;;-142.25;100.00;58004.16;5097908;28;20516;-61
2021/08/17 11:02:08;;;;;;;5.30;4.38;;;;;;;-142.25;100.00;58004.16;5096976;28;20076;-61
2021/08/17 11:04:41;;;;;;;5.85;3.85;;;;;;;-142.25;100.00;58004.16;5098374;28;20020;-64
2021/08/17 11:07:32;;;;;;;5.05;4.10;;;;;;;-142.25;100.00;58004.16;5095997;28;20088;-64